Weather History for KSPF - November, 2012

Change the Weather History Date:

Thursday, November 8, 2012

  Actual Average (KEFC) Record (KEFC)
Temperature  
Mean Temperature 36 °F -  
Max Temperature 44 °F 49 °F 77 °F (1978)
Min Temperature 28 °F 25 °F 11 °F (1991)
Degree Days  
Heating Degree Days 29    
Moisture  
Dew Point 29 °F    
Average Humidity 69    
Maximum Humidity 93    
Minimum Humidity 49    
Precipitation  
Precipitation 0.00 in - - ()
Sea Level Pressure  
Sea Level Pressure 29.95 in    
Wind  
Wind Speed 11 mph (ENE)    
Max Wind Speed 24 mph    
Max Gust Speed 30 mph    
Visibility 10 miles    
Events      
Averages and records for this station are not official NWS values.
T = Trace of Precipitation, MM = Missing Value Source: NWS Daily Summary

Daily Weather History Graph

Daily Weather History Graph

Search for Another Location

Airport or City:

Trip Planner

Search our weather history database for the weather conditions in past years. The results will help you decide how hot, cold, wet, or windy it might be!

Date:

Astronomy

Nov. 08, 2012 Rise Set
Actual Time 7:42 AM CST 5:34 PM CST
Civil Twilight 7:11 AM CST 6:05 PM CST
Nautical Twilight 6:36 AM CST 6:40 PM CST
Astronomical Twilight 6:02 AM CST 7:14 PM CST
Moon 1:27 AM CST (11/8) 2:28 PM CST (11/8)
Length of Visible Light 10h 53m
Length of Day
9h 51m
Waning Crescent, 32% of the Moon is Illuminated
Nov 8
Waning Crescent
Nov 13
New
Nov 20
First Quarter
Nov 28
Full
Dec 6
Last Quarter

Hourly Weather History & Observations

Time (CST) Temp. Windchill Dew Point Humidity Pressure Visibility Wind Dir Wind Speed Gust Speed Precip Events Conditions
12:15 AM 44.6 °F 38.1 °F 30.2 °F 57% 29.90 in 10.0 mi West 13.8 mph - N/A   Clear
12:35 AM 44.6 °F 38.4 °F 33.8 °F 66% 29.91 in 10.0 mi West 12.7 mph - N/A   Clear
12:55 AM 44.6 °F 40.2 °F 33.8 °F 66% 29.92 in 10.0 mi NW 8.1 mph - N/A   Clear
1:35 AM 41.0 °F 37.1 °F 32.0 °F 70% 29.94 in 10.0 mi West 5.8 mph - N/A   Clear
2:15 AM 42.8 °F 36.6 °F 32.0 °F 66% 29.97 in 10.0 mi West 11.5 mph - N/A   Clear
2:55 AM 41.0 °F 37.1 °F 32.0 °F 70% 29.98 in 10.0 mi WSW 5.8 mph - N/A   Clear
3:15 AM 39.2 °F 34.2 °F 30.2 °F 70% 29.99 in 10.0 mi WSW 6.9 mph - N/A   Clear
3:35 AM 37.4 °F 32.8 °F 30.2 °F 75% 29.99 in 10.0 mi WSW 5.8 mph - N/A   Clear
3:55 AM 37.4 °F 33.8 °F 28.4 °F 70% 29.99 in 10.0 mi West 4.6 mph - N/A   Clear
4:15 AM 39.2 °F 34.2 °F 28.4 °F 65% 29.99 in 10.0 mi WNW 6.9 mph - N/A   Clear
4:35 AM 39.2 °F 35.0 °F 28.4 °F 65% 30.00 in 10.0 mi West 5.8 mph - N/A   Clear
4:55 AM 37.4 °F 32.1 °F 28.4 °F 70% 30.00 in 10.0 mi NW 6.9 mph - N/A   Clear
5:15 AM 37.4 °F 32.1 °F 28.4 °F 70% 30.00 in 10.0 mi WNW 6.9 mph - N/A   Clear
5:35 AM 37.4 °F 32.8 °F 28.4 °F 70% 30.01 in 10.0 mi West 5.8 mph - N/A   Clear
5:55 AM 35.6 °F 29.9 °F 28.4 °F 75% 30.01 in 10.0 mi WSW 6.9 mph - N/A   Clear
6:15 AM 35.6 °F 29.9 °F 28.4 °F 75% 30.01 in 10.0 mi WSW 6.9 mph - N/A   Clear
6:35 AM 35.6 °F 29.9 °F 28.4 °F 75% 30.01 in 10.0 mi WSW 6.9 mph - N/A   Clear
6:55 AM 33.8 °F 27.7 °F 28.4 °F 81% 30.01 in 10.0 mi WSW 6.9 mph - N/A   Clear
7:15 AM 32.0 °F 25.6 °F 26.6 °F 80% 30.02 in 10.0 mi SW 6.9 mph - N/A   Clear
7:35 AM 35.6 °F 32.8 °F 26.6 °F 70% 30.03 in 10.0 mi SW 3.5 mph - N/A   Clear
7:55 AM 32.0 °F 25.6 °F 26.6 °F 80% 30.03 in 10.0 mi West 6.9 mph - N/A   Clear
8:15 AM 35.6 °F 29.2 °F 26.6 °F 70% 30.04 in 10.0 mi WSW 8.1 mph - N/A   Clear
8:35 AM 37.4 °F 32.1 °F 28.4 °F 70% 30.04 in 10.0 mi West 6.9 mph - N/A   Clear
8:55 AM 39.2 °F 35.0 °F 28.4 °F 65% 30.05 in 10.0 mi West 5.8 mph - N/A   Clear
9:15 AM 41.0 °F 38.0 °F 28.4 °F 61% 30.04 in 10.0 mi West 4.6 mph - N/A   Clear
9:35 AM 42.8 °F 38.0 °F 28.4 °F 57% 30.04 in 10.0 mi NW 8.1 mph - N/A   Clear
9:55 AM 42.8 °F 37.5 °F 28.4 °F 57% 30.05 in 10.0 mi NNW 9.2 mph - N/A   Clear
10:15 AM 42.8 °F 38.6 °F 28.4 °F 57% 30.04 in 10.0 mi NW 6.9 mph - N/A   Clear
10:35 AM 41.0 °F 36.4 °F 28.4 °F 61% 30.05 in 10.0 mi NNW 6.9 mph - N/A   Clear
10:55 AM 42.8 °F 41.1 °F 28.4 °F 57% 30.04 in 10.0 mi North 3.5 mph - N/A   Clear
11:15 AM 42.8 °F - 28.4 °F 57% 30.04 in 10.0 mi Calm Calm - N/A   Clear
11:35 AM 44.6 °F - 26.6 °F 49% 30.04 in 10.0 mi Calm Calm - N/A   Clear
11:55 AM 44.6 °F 40.7 °F 30.2 °F 57% 30.02 in 10.0 mi NE 6.9 mph - N/A   Clear
12:15 PM 44.6 °F 41.4 °F 30.2 °F 57% 30.01 in 10.0 mi ENE 5.8 mph - N/A   Clear
12:35 PM 44.6 °F 39.7 °F 30.2 °F 57% 30.00 in 10.0 mi ENE 9.2 mph - N/A   Clear
12:55 PM 44.6 °F 38.8 °F 30.2 °F 57% 29.98 in 10.0 mi NE 11.5 mph - N/A   Clear
1:15 PM 44.6 °F 38.8 °F 30.2 °F 57% 29.98 in 10.0 mi NE 11.5 mph - N/A   Clear
1:35 PM 44.6 °F 37.8 °F 32.0 °F 61% 29.97 in 10.0 mi ENE 15.0 mph - N/A   Clear
1:55 PM 44.6 °F 38.1 °F 30.2 °F 57% 29.96 in 10.0 mi ENE 13.8 mph - N/A   Clear
2:15 PM 44.6 °F 38.8 °F 30.2 °F 57% 29.95 in 10.0 mi East 11.5 mph - N/A   Clear
2:55 PM 44.6 °F 37.2 °F 28.4 °F 53% 29.93 in 10.0 mi ESE 17.3 mph 20.7 mph N/A   Clear
3:15 PM 44.6 °F 36.9 °F 28.4 °F 53% 29.91 in 10.0 mi East 18.4 mph 23.0 mph N/A   Clear
3:35 PM 44.6 °F 36.4 °F 28.4 °F 53% 29.91 in 10.0 mi East 20.7 mph 26.5 mph N/A   Clear
3:55 PM 42.8 °F 34.3 °F 28.4 °F 57% 29.91 in 10.0 mi East 19.6 mph - N/A   Clear
4:15 PM 41.0 °F 30.9 °F 28.4 °F 61% 29.90 in 10.0 mi East 24.2 mph 29.9 mph N/A   Clear
4:35 PM 41.0 °F 31.1 °F 28.4 °F 61% 29.90 in 10.0 mi East 23.0 mph 27.6 mph N/A   Clear
4:55 PM 39.2 °F 29.8 °F 28.4 °F 65% 29.89 in 10.0 mi East 18.4 mph - N/A   Clear
5:15 PM 39.2 °F 29.3 °F 28.4 °F 65% 29.89 in 10.0 mi East 20.7 mph 24.2 mph N/A   Clear
5:35 PM 37.4 °F 26.9 °F 28.4 °F 70% 29.89 in 10.0 mi East 20.7 mph 24.2 mph N/A   Clear
5:55 PM 37.4 °F 26.1 °F 26.6 °F 65% 29.89 in 10.0 mi East 24.2 mph 29.9 mph N/A   Clear
6:15 PM 37.4 °F 26.6 °F 28.4 °F 70% 29.90 in 10.0 mi East 21.9 mph 27.6 mph N/A   Clear
6:35 PM 37.4 °F 27.2 °F 28.4 °F 70% 29.89 in 10.0 mi East 19.6 mph 28.8 mph N/A   Clear
6:55 PM 35.6 °F 24.5 °F 28.4 °F 75% 29.89 in 10.0 mi East 20.7 mph - N/A   Clear
7:35 PM 35.6 °F 25.2 °F 26.6 °F 70% 29.89 in 10.0 mi East 18.4 mph 23.0 mph N/A   Clear
7:55 PM 32.0 °F 20.1 °F 26.6 °F 80% 29.87 in 10.0 mi East 19.6 mph 25.3 mph N/A   Clear
8:15 PM 32.0 °F 20.5 °F 26.6 °F 80% 29.87 in 10.0 mi East 18.4 mph 25.3 mph N/A   Clear
8:35 PM 32.0 °F 19.8 °F 28.4 °F 87% 29.87 in 10.0 mi East 20.7 mph 26.5 mph N/A   Clear
8:55 PM 32.0 °F 19.8 °F 26.6 °F 80% 29.86 in 10.0 mi East 20.7 mph 28.8 mph N/A   Clear
9:15 PM 32.0 °F 19.8 °F 28.4 °F 87% 29.86 in 10.0 mi East 20.7 mph 25.3 mph N/A   Scattered Clouds
9:35 PM 32.0 °F 20.1 °F 28.4 °F 87% 29.85 in 10.0 mi East 19.6 mph 26.5 mph N/A   Mostly Cloudy
9:55 PM 32.0 °F 20.5 °F 28.4 °F 87% 29.84 in 10.0 mi East 18.4 mph 26.5 mph N/A   Overcast
10:15 PM 32.0 °F 21.2 °F 26.6 °F 80% 29.84 in 10.0 mi East 16.1 mph 26.5 mph N/A   Mostly Cloudy
10:35 PM 32.0 °F 21.2 °F 26.6 °F 80% 29.83 in 10.0 mi East 16.1 mph - N/A   Mostly Cloudy
10:55 PM 32.0 °F 21.6 °F 28.4 °F 87% 29.83 in 10.0 mi East 15.0 mph - N/A   Mostly Cloudy
11:15 PM 30.2 °F 18.1 °F 26.6 °F 86% 29.83 in 10.0 mi East 18.4 mph 24.2 mph N/A   Clear
11:35 PM 28.4 °F 16.6 °F 26.6 °F 93% 29.82 in 9.0 mi East 16.1 mph 20.7 mph N/A   Clear
11:55 PM 28.4 °F 19.7 °F 26.6 °F 93% 29.83 in 7.0 mi East 9.2 mph 17.3 mph N/A   Clear